createdAt,value
2023-01-30T00:00:22.847Z,2.20
2023-01-30T00:03:15.280Z,2.20
2023-01-30T00:05:48.464Z,2.10
2023-01-30T00:08:21.350Z,2.20
2023-01-30T00:10:54.415Z,2.10
2023-01-30T00:13:27.884Z,2.10
2023-01-30T00:16:00.739Z,2.10
2023-01-30T00:18:33.286Z,2.10
2023-01-30T00:21:09.043Z,2.00
2023-01-30T00:23:42.189Z,2.00
2023-01-30T00:26:15.068Z,2.00
2023-01-30T00:28:47.572Z,2.00
2023-01-30T00:31:20.623Z,2.00
2023-01-30T00:33:53.104Z,2.00
2023-01-30T00:36:26.088Z,2.00
2023-01-30T00:38:59.242Z,2.00
2023-01-30T00:41:51.968Z,2.00
2023-01-30T00:44:43.170Z,2.00
2023-01-30T00:47:16.480Z,2.00
2023-01-30T00:49:48.936Z,2.00
2023-01-30T00:52:21.748Z,2.00
2023-01-30T00:54:54.202Z,2.00
2023-01-30T00:57:27.219Z,2.00
2023-01-30T01:00:00.161Z,2.00
2023-01-30T01:02:32.983Z,1.90
2023-01-30T01:05:06.001Z,1.90
2023-01-30T01:07:39.843Z,1.80
2023-01-30T01:10:16.659Z,1.80
2023-01-30T01:12:52.463Z,1.70
2023-01-30T01:15:28.563Z,1.80
2023-01-30T01:18:01.386Z,1.80
2023-01-30T01:20:33.941Z,1.80
2023-01-30T01:23:06.796Z,1.80
2023-01-30T01:25:39.255Z,1.80
2023-01-30T01:28:12.060Z,1.80
2023-01-30T01:30:44.567Z,1.80
2023-01-30T01:33:17.345Z,1.90
2023-01-30T01:35:49.823Z,1.90
2023-01-30T01:38:23.000Z,1.90
2023-01-30T01:41:10.061Z,1.90
2023-01-30T01:44:07.568Z,1.90
2023-01-30T01:46:52.049Z,1.90
2023-01-30T01:49:34.011Z,1.80
2023-01-30T01:52:13.381Z,1.80
2023-01-30T01:54:53.696Z,1.80
2023-01-30T01:57:38.813Z,1.80
2023-01-30T02:00:12.969Z,1.80
2023-01-30T02:02:51.997Z,1.80
2023-01-30T02:05:28.558Z,1.80
2023-01-30T02:08:06.141Z,1.80
2023-01-30T02:11:00.094Z,1.80
2023-01-30T02:13:33.523Z,1.80
2023-01-30T02:16:09.339Z,1.70
2023-01-30T02:18:43.471Z,1.70
2023-01-30T02:21:45.551Z,1.70
2023-01-30T02:24:36.728Z,1.70
2023-01-30T02:27:17.048Z,1.70
2023-01-30T02:30:16.110Z,1.70
2023-01-30T02:33:19.223Z,1.70
2023-01-30T02:35:57.245Z,1.70
2023-01-30T02:38:42.858Z,1.70
2023-01-30T02:41:34.065Z,1.60
2023-01-30T02:44:16.686Z,1.60
2023-01-30T02:47:02.102Z,1.60
2023-01-30T02:50:03.893Z,1.60
2023-01-30T02:52:37.431Z,1.60
2023-01-30T02:55:22.429Z,1.60
2023-01-30T02:57:56.056Z,1.60
2023-01-30T03:00:34.773Z,1.60
2023-01-30T03:03:11.156Z,1.60
2023-01-30T03:06:10.673Z,1.60
2023-01-30T03:08:54.810Z,1.60
2023-01-30T03:11:40.010Z,1.60
2023-01-30T03:14:25.864Z,1.70
2023-01-30T03:17:00.230Z,1.70
2023-01-30T03:19:32.872Z,1.70
2023-01-30T03:22:05.707Z,1.70
2023-01-30T03:24:38.252Z,1.70
2023-01-30T03:27:13.061Z,1.70
2023-01-30T03:29:45.721Z,1.70
2023-01-30T03:32:18.519Z,1.70
2023-01-30T03:34:51.004Z,1.70
2023-01-30T03:37:23.768Z,1.70
2023-01-30T03:39:56.412Z,1.80
2023-01-30T03:42:29.513Z,1.70
2023-01-30T03:45:01.999Z,1.80
2023-01-30T03:47:34.796Z,1.80
2023-01-30T03:50:08.008Z,1.80
2023-01-30T03:52:40.839Z,1.80
2023-01-30T03:55:13.515Z,1.80
2023-01-30T03:57:46.369Z,1.70
2023-01-30T04:00:19.298Z,1.80
2023-01-30T04:02:52.323Z,1.80
2023-01-30T04:05:25.157Z,1.70
2023-01-30T04:07:58.138Z,1.70
2023-01-30T04:10:30.623Z,1.70
2023-01-30T04:13:03.383Z,1.70
2023-01-30T04:15:35.941Z,1.70
2023-01-30T04:18:08.755Z,1.70
2023-01-30T04:20:41.282Z,1.70
2023-01-30T04:23:14.066Z,1.70
2023-01-30T04:25:47.075Z,1.70
2023-01-30T04:28:19.857Z,1.70
2023-01-30T04:30:55.620Z,1.70
2023-01-30T04:33:28.893Z,1.70
2023-01-30T04:36:03.353Z,1.60
2023-01-30T04:38:37.007Z,1.50
2023-01-30T04:41:09.468Z,1.50
2023-01-30T04:43:42.374Z,1.50
2023-01-30T04:46:15.606Z,1.40
2023-01-30T04:48:48.411Z,1.40
2023-01-30T04:51:22.613Z,1.30
2023-01-30T04:53:55.377Z,1.30
2023-01-30T04:56:27.886Z,1.30
2023-01-30T04:59:00.673Z,1.20
2023-01-30T05:01:38.640Z,1.20
2023-01-30T05:04:11.659Z,1.20
2023-01-30T05:06:44.159Z,1.20
2023-01-30T05:09:16.974Z,1.10
2023-01-30T05:11:49.432Z,1.10
2023-01-30T05:14:22.207Z,1.00
2023-01-30T05:16:54.791Z,1.00
2023-01-30T05:19:27.712Z,1.00
2023-01-30T05:22:00.208Z,1.00
2023-01-30T05:24:32.978Z,1.00
2023-01-30T05:27:05.632Z,1.00
2023-01-30T05:29:38.377Z,1.00
2023-01-30T05:32:16.580Z,1.00
2023-01-30T05:34:49.955Z,1.10
2023-01-30T05:37:22.631Z,1.10
2023-01-30T05:39:55.452Z,1.00
2023-01-30T05:42:27.973Z,1.00
2023-01-30T05:45:00.777Z,1.00
2023-01-30T05:47:33.351Z,1.00
2023-01-30T05:50:06.423Z,1.00
2023-01-30T05:52:38.987Z,0.90
2023-01-30T05:55:11.733Z,0.90
2023-01-30T05:57:44.253Z,0.90
2023-01-30T06:00:17.427Z,0.90
2023-01-30T06:02:49.916Z,0.90
2023-01-30T06:05:22.774Z,0.90
2023-01-30T06:07:55.304Z,0.90
2023-01-30T06:10:28.027Z,0.90
2023-01-30T06:13:00.534Z,0.90
2023-01-30T06:15:33.328Z,0.90
2023-01-30T06:18:05.909Z,0.90
2023-01-30T06:20:38.769Z,0.90
2023-01-30T06:23:11.270Z,0.90
2023-01-30T06:25:45.181Z,0.90
2023-01-30T06:28:18.464Z,0.90
2023-01-30T06:30:51.829Z,0.90
2023-01-30T06:33:24.462Z,0.90
2023-01-30T06:35:57.227Z,1.00
2023-01-30T06:38:29.879Z,1.00
2023-01-30T06:41:02.667Z,1.00
2023-01-30T06:43:35.173Z,1.00
2023-01-30T06:46:07.984Z,1.00
2023-01-30T06:48:40.810Z,1.00
2023-01-30T06:51:13.609Z,1.00
2023-01-30T06:53:46.139Z,1.00
2023-01-30T06:56:19.297Z,1.00
2023-01-30T06:58:51.805Z,1.00
2023-01-30T07:01:24.856Z,1.10
2023-01-30T07:03:57.399Z,1.10
2023-01-30T07:06:30.169Z,1.10
2023-01-30T07:09:02.828Z,1.10
2023-01-30T07:11:39.417Z,1.10
2023-01-30T07:14:11.970Z,1.10
2023-01-30T07:16:45.109Z,1.10
2023-01-30T07:19:17.568Z,1.20
2023-01-30T07:21:50.341Z,1.20
2023-01-30T07:24:22.909Z,1.20
2023-01-30T07:26:55.718Z,1.20
2023-01-30T07:29:28.313Z,1.20
2023-01-30T07:32:01.363Z,1.20
2023-01-30T07:34:34.009Z,1.20
2023-01-30T07:37:06.738Z,1.20
2023-01-30T07:39:39.291Z,1.10
2023-01-30T07:42:12.045Z,1.10
2023-01-30T07:44:44.596Z,1.00
2023-01-30T07:47:20.114Z,1.00
2023-01-30T07:49:52.666Z,1.00
2023-01-30T07:52:25.792Z,1.00
2023-01-30T07:55:00.570Z,1.00
2023-01-30T07:57:34.204Z,0.90
2023-01-30T08:00:07.844Z,1.00
2023-01-30T08:02:40.629Z,0.90
2023-01-30T08:05:13.212Z,0.90
2023-01-30T08:07:47.569Z,0.90
2023-01-30T08:10:20.463Z,1.00
2023-01-30T08:12:53.470Z,1.00
2023-01-30T08:15:26.305Z,1.00
2023-01-30T08:18:00.367Z,0.90
2023-01-30T08:20:33.733Z,0.90
2023-01-30T08:23:06.609Z,0.90
2023-01-30T08:25:39.212Z,0.90
2023-01-30T08:28:11.958Z,0.90
2023-01-30T08:30:44.753Z,1.00
2023-01-30T08:33:17.501Z,1.00
2023-01-30T08:35:50.201Z,1.00
2023-01-30T08:38:22.952Z,1.10
2023-01-30T08:40:57.145Z,1.10
2023-01-30T08:43:30.054Z,1.10
2023-01-30T08:46:02.836Z,1.10
2023-01-30T08:48:49.129Z,1.10
2023-01-30T08:51:22.602Z,1.10
2023-01-30T08:53:55.409Z,1.20
2023-01-30T08:56:27.939Z,1.20
2023-01-30T08:59:00.727Z,1.20
2023-01-30T09:01:33.540Z,1.20
2023-01-30T09:04:06.552Z,1.30
2023-01-30T09:06:39.063Z,1.20
2023-01-30T09:09:11.843Z,1.20
2023-01-30T09:11:44.450Z,1.30
2023-01-30T09:14:19.940Z,1.30
2023-01-30T09:16:55.823Z,1.30
2023-01-30T09:19:29.290Z,1.30
2023-01-30T09:22:01.832Z,1.30
2023-01-30T09:24:34.715Z,1.40
2023-01-30T09:27:07.219Z,1.40
2023-01-30T09:29:40.063Z,1.40
2023-01-30T09:32:12.543Z,1.50
2023-01-30T09:34:45.371Z,1.50
2023-01-30T09:37:17.995Z,1.50
2023-01-30T09:39:50.767Z,1.50
2023-01-30T09:43:00.965Z,1.50
2023-01-30T09:45:36.784Z,1.50
2023-01-30T09:48:20.974Z,1.60
2023-01-30T09:51:04.200Z,1.60
2023-01-30T09:54:04.218Z,1.60
2023-01-30T09:56:37.116Z,1.60
2023-01-30T09:59:30.576Z,1.70
2023-01-30T10:02:18.722Z,1.70
2023-01-30T10:05:01.279Z,1.80
2023-01-30T10:07:56.093Z,1.80
2023-01-30T10:10:55.082Z,1.80
2023-01-30T10:13:55.245Z,1.80
2023-01-30T10:17:01.464Z,1.80
2023-01-30T10:19:50.908Z,1.90
2023-01-30T10:22:47.891Z,1.90
2023-01-30T10:25:34.288Z,1.90
2023-01-30T10:28:22.663Z,1.90
2023-01-30T10:31:10.313Z,1.90
2023-01-30T10:34:02.422Z,2.00
2023-01-30T10:36:57.253Z,2.10
2023-01-30T10:39:55.864Z,2.10
2023-01-30T10:42:39.407Z,2.10
2023-01-30T10:45:22.317Z,2.10
2023-01-30T10:48:15.173Z,2.20
2023-01-30T10:50:59.650Z,2.30
2023-01-30T10:53:42.630Z,2.30
2023-01-30T10:56:36.741Z,2.30
2023-01-30T10:59:34.959Z,2.30
2023-01-30T11:02:19.728Z,2.30
2023-01-30T11:05:15.608Z,2.40
2023-01-30T11:07:49.359Z,2.40
2023-01-30T11:10:25.896Z,2.60
2023-01-30T11:13:19.067Z,2.70
2023-01-30T11:15:54.215Z,2.70
2023-01-30T11:19:17.163Z,2.80
2023-01-30T11:21:43.107Z,2.80
2023-01-30T11:24:37.868Z,2.80
2023-01-30T11:27:20.685Z,2.80
2023-01-30T11:30:10.431Z,2.70
2023-01-30T11:32:45.121Z,2.80
2023-01-30T11:35:25.977Z,2.80
2023-01-30T11:38:26.347Z,2.90
2023-01-30T11:41:12.953Z,3.00
2023-01-30T11:43:45.733Z,3.00
2023-01-30T11:46:19.929Z,3.00
2023-01-30T11:49:45.236Z,3.10
2023-01-30T11:52:08.166Z,3.10
2023-01-30T11:54:44.560Z,3.20
2023-01-30T11:57:20.136Z,3.20
2023-01-30T11:59:59.126Z,3.30
2023-01-30T12:02:38.225Z,3.40
2023-01-30T12:05:32.155Z,3.30
2023-01-30T12:08:18.648Z,3.30
2023-01-30T12:11:01.585Z,3.40
2023-01-30T12:13:41.593Z,3.40
2023-01-30T12:16:36.400Z,3.50
2023-01-30T12:19:17.624Z,3.60
2023-01-30T12:22:06.314Z,3.60
2023-01-30T12:24:46.333Z,3.70
2023-01-30T12:27:52.470Z,3.70
2023-01-30T12:30:34.920Z,3.70
2023-01-30T12:33:12.994Z,3.70
2023-01-30T12:35:58.717Z,3.70
2023-01-30T12:38:34.528Z,3.70
2023-01-30T12:41:25.117Z,3.70
2023-01-30T12:44:07.641Z,3.80
2023-01-30T12:47:03.202Z,3.80
2023-01-30T12:49:42.394Z,3.90
2023-01-30T12:52:33.676Z,3.90
2023-01-30T12:55:38.733Z,4.00
2023-01-30T12:58:16.325Z,4.10
2023-01-30T13:01:07.720Z,4.20
2023-01-30T13:03:57.416Z,4.30
2023-01-30T13:06:48.752Z,4.40
2023-01-30T13:09:30.281Z,4.40
2023-01-30T13:12:27.752Z,4.40
2023-01-30T13:15:22.872Z,4.50
2023-01-30T13:18:15.972Z,4.50
2023-01-30T13:21:11.557Z,4.60
2023-01-30T13:24:05.273Z,4.40
2023-01-30T13:26:39.633Z,4.40
2023-01-30T13:29:23.773Z,4.50
2023-01-30T13:32:00.341Z,4.50
2023-01-30T13:34:45.023Z,4.40
2023-01-30T13:37:20.140Z,4.40
2023-01-30T13:40:00.512Z,4.30
2023-01-30T13:42:42.671Z,4.30
2023-01-30T13:45:28.451Z,4.30
2023-01-30T13:48:19.484Z,4.20
2023-01-30T13:51:05.723Z,4.10
2023-01-30T13:53:58.459Z,4.00
2023-01-30T13:57:05.693Z,4.00
2023-01-30T13:59:56.011Z,3.90
2023-01-30T14:02:28.811Z,3.90
2023-01-30T14:05:05.823Z,3.90
2023-01-30T14:07:42.441Z,3.80
2023-01-30T14:10:20.971Z,3.80
2023-01-30T14:12:54.954Z,3.70
2023-01-30T14:15:32.095Z,3.70
2023-01-30T14:18:07.905Z,3.70
2023-01-30T14:20:45.565Z,3.70
2023-01-30T14:23:34.188Z,3.80
2023-01-30T14:26:06.771Z,3.70
2023-01-30T14:28:48.747Z,3.70
2023-01-30T14:31:49.722Z,3.70
2023-01-30T14:34:46.018Z,3.60
2023-01-30T14:37:39.496Z,3.60
2023-01-30T14:40:21.337Z,3.60
2023-01-30T14:43:12.584Z,3.60
2023-01-30T14:46:13.649Z,3.60
2023-01-30T14:48:55.162Z,3.70
2023-01-30T14:51:39.720Z,3.60
2023-01-30T14:54:13.185Z,3.60
2023-01-30T14:57:02.230Z,3.50
2023-01-30T15:00:14.944Z,3.50
2023-01-30T15:02:54.795Z,3.40
2023-01-30T15:05:39.028Z,3.40
2023-01-30T15:08:26.273Z,3.40
2023-01-30T15:11:06.993Z,3.30
2023-01-30T15:14:23.117Z,3.30
2023-01-30T15:17:05.590Z,3.30
2023-01-30T15:20:07.609Z,3.40
2023-01-30T15:22:51.819Z,3.40
2023-01-30T15:25:38.549Z,3.40
2023-01-30T15:28:33.593Z,3.40
2023-01-30T15:31:11.068Z,3.40
2023-01-30T15:33:45.591Z,3.40
2023-01-30T15:36:25.105Z,3.40
2023-01-30T15:38:57.775Z,3.50
2023-01-30T15:41:40.463Z,3.50
2023-01-30T15:44:14.316Z,3.50
2023-01-30T15:46:51.736Z,3.40
2023-01-30T15:49:53.410Z,3.40
2023-01-30T15:52:37.820Z,3.30
2023-01-30T15:55:44.898Z,3.20
2023-01-30T15:58:20.791Z,3.10
2023-01-30T16:00:59.778Z,3.10
2023-01-30T16:03:38.222Z,3.10
2023-01-30T16:06:34.684Z,3.10
2023-01-30T16:09:21.025Z,3.10
2023-01-30T16:11:53.516Z,3.10
2023-01-30T16:14:26.313Z,3.10
2023-01-30T16:17:03.918Z,3.20
2023-01-30T16:19:39.026Z,3.20
2023-01-30T16:22:20.443Z,3.20
2023-01-30T16:24:54.727Z,3.20
2023-01-30T16:27:33.692Z,3.20
2023-01-30T16:30:09.339Z,3.20
2023-01-30T16:32:42.629Z,3.10
2023-01-30T16:35:31.768Z,3.10
2023-01-30T16:38:37.724Z,3.00
2023-01-30T16:41:35.708Z,2.90
2023-01-30T16:44:08.162Z,2.90
2023-01-30T16:46:50.137Z,2.80
2023-01-30T16:49:44.314Z,2.80
2023-01-30T16:52:41.251Z,2.70
2023-01-30T16:55:27.181Z,2.70
2023-01-30T16:58:03.813Z,2.60
2023-01-30T17:00:39.479Z,2.60
2023-01-30T17:03:29.820Z,2.60
2023-01-30T17:06:12.565Z,2.70
2023-01-30T17:08:54.052Z,2.80
2023-01-30T17:11:33.682Z,2.80
2023-01-30T17:14:22.396Z,2.90
2023-01-30T17:17:09.965Z,2.90
2023-01-30T17:19:46.426Z,3.00
2023-01-30T17:22:20.760Z,3.10
2023-01-30T17:25:01.404Z,3.10
2023-01-30T17:27:33.932Z,3.10
2023-01-30T17:30:14.984Z,3.10
2023-01-30T17:32:48.103Z,3.20
2023-01-30T17:35:21.324Z,3.20
2023-01-30T17:38:04.750Z,3.20
2023-01-30T17:40:38.752Z,3.20
2023-01-30T17:43:13.169Z,3.20
2023-01-30T17:45:46.101Z,3.20
2023-01-30T17:48:18.602Z,3.30
2023-01-30T17:50:51.545Z,3.30
2023-01-30T17:53:24.061Z,3.30
2023-01-30T17:55:56.887Z,3.40
2023-01-30T17:58:29.510Z,3.40
2023-01-30T18:01:02.302Z,3.40
2023-01-30T18:03:34.775Z,3.40
2023-01-30T18:06:07.732Z,3.40
2023-01-30T18:08:40.823Z,3.40
2023-01-30T18:11:14.990Z,3.40
2023-01-30T18:13:47.873Z,3.40
2023-01-30T18:16:31.109Z,3.50
2023-01-30T18:19:06.071Z,3.50
2023-01-30T18:21:40.137Z,3.50
2023-01-30T18:24:13.565Z,3.50
2023-01-30T18:26:47.312Z,3.50
2023-01-30T18:29:20.103Z,3.60
2023-01-30T18:31:52.987Z,3.60
2023-01-30T18:34:25.543Z,3.60
2023-01-30T18:36:58.699Z,3.60
2023-01-30T18:39:32.128Z,3.60
2023-01-30T18:42:05.346Z,3.60
2023-01-30T18:44:38.047Z,3.60
2023-01-30T18:47:10.832Z,3.60
2023-01-30T18:49:43.295Z,3.60
2023-01-30T18:52:16.044Z,3.60
2023-01-30T18:54:48.648Z,3.70
2023-01-30T18:57:21.410Z,3.70
2023-01-30T18:59:53.960Z,3.70
2023-01-30T19:02:26.763Z,3.70
2023-01-30T19:04:59.305Z,3.70
2023-01-30T19:07:32.087Z,3.70
2023-01-30T19:10:04.863Z,3.70
2023-01-30T19:12:56.335Z,3.60
2023-01-30T19:15:29.246Z,3.60
2023-01-30T19:18:02.089Z,3.60
2023-01-30T19:20:34.673Z,3.70
2023-01-30T19:23:08.024Z,3.70
2023-01-30T19:25:40.634Z,3.70
2023-01-30T19:28:13.420Z,3.70
2023-01-30T19:30:46.006Z,3.70
2023-01-30T19:33:18.996Z,3.70
2023-01-30T19:35:51.673Z,3.60
2023-01-30T19:38:24.469Z,3.60
2023-01-30T19:40:56.963Z,3.60
2023-01-30T19:43:29.728Z,3.60
2023-01-30T19:46:02.308Z,3.70
2023-01-30T19:48:35.154Z,3.70
2023-01-30T19:51:27.961Z,3.70
2023-01-30T19:54:04.553Z,3.60
2023-01-30T19:56:39.318Z,3.60
2023-01-30T19:59:13.508Z,3.60
2023-01-30T20:01:46.224Z,3.60
2023-01-30T20:04:19.152Z,3.60
2023-01-30T20:06:51.643Z,3.60
2023-01-30T20:09:24.441Z,3.60
2023-01-30T20:11:56.909Z,3.60
2023-01-30T20:14:29.684Z,3.60
2023-01-30T20:17:02.296Z,3.70
2023-01-30T20:19:35.090Z,3.70
2023-01-30T20:22:08.394Z,3.70
2023-01-30T20:24:41.170Z,3.70
2023-01-30T20:27:13.647Z,3.60
2023-01-30T20:29:46.483Z,3.70
2023-01-30T20:32:19.147Z,3.70
2023-01-30T20:34:52.071Z,3.70
2023-01-30T20:37:25.878Z,3.70
2023-01-30T20:39:58.678Z,3.80
2023-01-30T20:42:31.146Z,3.80
2023-01-30T20:45:04.661Z,3.80
2023-01-30T20:47:37.598Z,3.90
2023-01-30T20:50:13.759Z,4.00
2023-01-30T20:52:51.465Z,3.90
2023-01-30T20:55:24.347Z,4.00
2023-01-30T20:57:56.897Z,4.00
2023-01-30T21:00:29.757Z,3.90
2023-01-30T21:03:02.268Z,4.00
2023-01-30T21:05:35.240Z,4.00
2023-01-30T21:08:07.795Z,4.10
2023-01-30T21:10:46.540Z,4.10
2023-01-30T21:13:19.180Z,4.10
2023-01-30T21:16:02.015Z,4.10
2023-01-30T21:18:37.060Z,4.10
2023-01-30T21:21:18.215Z,4.20
2023-01-30T21:23:54.439Z,4.20
2023-01-30T21:26:29.941Z,4.20
2023-01-30T21:29:06.204Z,4.30
2023-01-30T21:31:39.645Z,4.30
2023-01-30T21:34:13.298Z,4.30
2023-01-30T21:37:06.126Z,4.30
2023-01-30T21:39:57.599Z,4.30
2023-01-30T21:42:58.571Z,4.30
2023-01-30T21:45:31.941Z,4.30
2023-01-30T21:48:05.156Z,4.30
2023-01-30T21:50:37.631Z,4.30
2023-01-30T21:53:10.428Z,4.30
2023-01-30T21:55:42.911Z,4.40
2023-01-30T21:58:18.325Z,4.30
2023-01-30T22:00:50.851Z,4.40
2023-01-30T22:03:26.810Z,4.30
2023-01-30T22:06:01.860Z,4.30
2023-01-30T22:08:37.532Z,4.40
2023-01-30T22:11:15.052Z,4.30
2023-01-30T22:13:48.679Z,4.40
2023-01-30T22:16:24.400Z,4.40
2023-01-30T22:18:59.195Z,4.30
2023-01-30T22:21:36.297Z,4.30
2023-01-30T22:24:11.254Z,4.20
2023-01-30T22:26:43.757Z,4.20
2023-01-30T22:29:18.137Z,4.20
2023-01-30T22:31:50.666Z,4.20
2023-01-30T22:34:23.490Z,4.20
2023-01-30T22:36:55.966Z,4.20
2023-01-30T22:39:28.744Z,4.20
2023-01-30T22:42:01.241Z,4.20
2023-01-30T22:44:34.198Z,4.10
2023-01-30T22:47:06.711Z,4.10
2023-01-30T22:49:39.695Z,4.10
2023-01-30T22:52:12.230Z,4.00
2023-01-30T22:54:44.996Z,4.00
2023-01-30T22:57:17.473Z,3.90
2023-01-30T22:59:52.046Z,3.80
2023-01-30T23:02:24.565Z,3.70
2023-01-30T23:04:57.470Z,3.70
2023-01-30T23:07:29.953Z,3.60
2023-01-30T23:10:03.230Z,3.60
2023-01-30T23:12:54.116Z,3.50
2023-01-30T23:15:26.922Z,3.50
2023-01-30T23:18:17.816Z,3.50
2023-01-30T23:20:50.541Z,3.50
2023-01-30T23:23:23.048Z,3.50
2023-01-30T23:25:55.830Z,3.40
2023-01-30T23:28:28.322Z,3.40
2023-01-30T23:31:13.155Z,3.40
2023-01-30T23:33:46.224Z,3.50
2023-01-30T23:36:18.962Z,3.50
2023-01-30T23:38:53.189Z,3.60
2023-01-30T23:41:31.682Z,3.70
2023-01-30T23:44:04.973Z,3.80
2023-01-30T23:46:40.355Z,3.80
2023-01-30T23:49:15.067Z,3.80
2023-01-30T23:51:47.909Z,3.80
2023-01-30T23:54:20.421Z,3.90
2023-01-30T23:56:55.279Z,3.90
2023-01-30T23:59:27.783Z,3.90
